Time,TemperatureF,DewpointF,PressureIn,WindDirection,WindDirectionDegrees,WindSpeedMPH,WindSpeedGustMPH,Humidity,HourlyPrecipIn,Conditions,Clouds,dailyrainin,SoftwareType,DateUTC
2013-10-28 00:13:00,36.0,34.0,30.12,SW,225,0.0,0.0,91,0.00,,,0.00,,2013-10-28 05:13:00,
2013-10-28 00:22:00,36.0,34.0,30.13,SW,225,0.0,0.0,92,0.00,,,0.00,,2013-10-28 05:22:00,
2013-10-28 00:42:00,36.0,34.0,30.13,SW,225,0.0,0.0,92,0.00,,,0.00,,2013-10-28 05:42:00,
2013-10-28 00:53:00,36.0,34.0,30.13,SW,225,0.0,0.0,92,0.00,,,0.00,,2013-10-28 05:53:00,
2013-10-28 01:12:00,36.0,34.0,30.13,SW,225,0.0,0.0,93,0.00,,,0.00,,2013-10-28 06:12:00,
2013-10-28 01:22:00,36.0,34.0,30.14,SW,225,0.0,0.0,93,0.00,,,0.00,,2013-10-28 06:22:00,
2013-10-28 01:43:00,36.0,34.0,30.14,SW,225,0.0,0.0,93,0.00,,,0.00,,2013-10-28 06:43:00,
2013-10-28 01:52:00,36.0,34.0,30.14,SW,225,0.0,0.0,93,0.00,,,0.00,,2013-10-28 06:52:00,
2013-10-28 02:12:00,36.0,34.0,30.14,SW,225,0.0,0.0,93,0.00,,,0.00,,2013-10-28 07:12:00,
2013-10-28 02:22:00,36.0,34.0,30.15,SW,225,0.0,0.0,94,0.00,,,0.00,,2013-10-28 07:22:00,
2013-10-28 02:42:00,36.0,34.0,30.15,SW,225,0.0,0.0,94,0.00,,,0.00,,2013-10-28 07:42:00,
2013-10-28 02:52:00,35.0,33.0,30.15,SW,225,0.0,0.0,93,0.00,,,0.00,,2013-10-28 07:52:00,
2013-10-28 03:12:00,35.0,33.0,30.15,SW,225,0.0,0.0,93,0.00,,,0.00,,2013-10-28 08:12:00,
2013-10-28 03:22:00,35.0,33.0,30.15,SW,225,0.0,0.0,94,0.00,,,0.00,,2013-10-28 08:22:00,
2013-10-28 03:42:00,35.0,33.0,30.15,SW,225,0.0,0.0,93,0.00,,,0.00,,2013-10-28 08:42:00,
2013-10-28 03:52:00,35.0,33.0,30.15,SW,225,0.0,0.0,94,0.00,,,0.00,,2013-10-28 08:52:00,
2013-10-28 04:11:00,35.0,33.0,30.15,SW,225,0.0,0.0,94,0.00,,,0.00,,2013-10-28 09:11:00,
2013-10-28 04:22:00,35.0,33.0,30.15,SW,225,0.0,0.0,94,0.00,,,0.00,,2013-10-28 09:22:00,
2013-10-28 04:43:00,35.0,33.0,30.15,SW,225,0.0,0.0,94,0.00,,,0.00,,2013-10-28 09:43:00,
2013-10-28 04:53:00,35.0,33.0,30.16,SW,225,0.0,0.0,94,0.00,,,0.00,,2013-10-28 09:53:00,
2013-10-28 05:13:00,35.0,34.0,30.16,SW,225,0.0,0.0,95,0.00,,,0.00,,2013-10-28 10:13:00,
2013-10-28 05:23:00,36.0,35.0,30.16,SW,224,0.0,0.0,95,0.00,,,0.00,,2013-10-28 10:23:00,
2013-10-28 05:43:00,35.0,33.0,30.17,SW,224,0.0,0.0,94,0.00,,,0.00,,2013-10-28 10:43:00,
2013-10-28 05:53:00,35.0,33.0,30.18,SW,224,0.0,0.0,94,0.00,,,0.00,,2013-10-28 10:53:00,
2013-10-28 06:12:00,35.0,34.0,30.19,SW,224,0.0,0.0,95,0.00,,,0.00,,2013-10-28 11:12:00,
2013-10-28 06:22:00,35.0,33.0,30.20,SW,224,0.0,0.0,94,0.00,,,0.00,,2013-10-28 11:22:00,
2013-10-28 06:42:00,34.0,32.0,30.20,SW,224,0.0,0.0,94,0.00,,,0.00,,2013-10-28 11:42:00,
2013-10-28 06:52:00,34.0,33.0,30.21,SW,224,0.0,0.0,95,0.00,,,0.00,,2013-10-28 11:52:00,
2013-10-28 07:12:00,34.0,33.0,30.21,SW,224,0.0,0.0,95,0.00,,,0.00,,2013-10-28 12:12:00,
2013-10-28 07:21:00,34.0,33.0,30.22,SW,224,0.0,0.0,95,0.00,,,0.00,,2013-10-28 12:21:00,
2013-10-28 07:42:00,34.0,33.0,30.22,SW,224,0.0,0.0,95,0.00,,,0.00,,2013-10-28 12:42:00,
2013-10-28 07:52:00,35.0,34.0,30.22,SW,224,0.0,0.0,95,0.00,,,0.00,,2013-10-28 12:52:00,
2013-10-28 08:11:00,36.0,35.0,30.22,SW,224,0.0,0.0,96,0.00,,,0.00,,2013-10-28 13:11:00,
2013-10-28 08:22:00,36.0,35.0,30.23,SW,224,0.0,0.0,96,0.00,,,0.00,,2013-10-28 13:22:00,
2013-10-28 08:42:00,37.0,36.0,30.24,SW,224,0.0,0.0,96,0.00,,,0.00,,2013-10-28 13:42:00,
2013-10-28 08:52:00,38.0,37.0,30.24,SE,131,0.0,0.0,95,0.00,,,0.00,,2013-10-28 13:52:00,
2013-10-28 09:11:00,40.0,39.0,30.25,SE,131,0.0,0.0,95,0.00,,,0.00,,2013-10-28 14:11:00,
2013-10-28 09:22:00,42.0,40.0,30.25,SE,131,0.0,0.0,93,0.00,,,0.00,,2013-10-28 14:22:00,
2013-10-28 09:52:00,48.0,42.0,30.27,SE,131,0.0,0.0,80,0.00,,,0.00,,2013-10-28 14:52:00,
2013-10-28 10:11:00,50.0,41.0,30.27,ESE,105,0.0,0.0,71,0.00,,,0.00,,2013-10-28 15:11:00,
2013-10-28 10:22:00,52.0,42.0,30.27,ESE,104,0.0,0.0,68,0.00,,,0.00,,2013-10-28 15:22:00,
2013-10-28 10:43:00,54.0,41.0,30.27,ESE,111,0.0,0.0,61,0.00,,,0.00,,2013-10-28 15:43:00,
2013-10-28 10:53:00,56.0,41.0,30.27,East,96,0.0,0.0,58,0.00,,,0.00,,2013-10-28 15:53:00,
2013-10-28 11:13:00,57.0,40.0,30.27,SE,129,0.0,0.0,53,0.00,,,0.00,,2013-10-28 16:13:00,
2013-10-28 11:23:00,58.0,40.0,30.28,East,93,0.0,0.0,52,0.00,,,0.00,,2013-10-28 16:23:00,
2013-10-28 11:43:00,60.0,41.0,30.27,East,83,0.0,0.0,50,0.00,,,0.00,,2013-10-28 16:43:00,
2013-10-28 11:53:00,61.0,41.0,30.27,ESE,117,0.0,0.0,48,0.00,,,0.00,,2013-10-28 16:53:00,
2013-10-28 12:12:00,61.0,40.0,30.27,South,180,0.0,0.0,46,0.00,,,0.00,,2013-10-28 17:12:00,
2013-10-28 12:22:00,62.0,41.0,30.27,East,101,0.0,0.0,46,0.00,,,0.00,,2013-10-28 17:22:00,
2013-10-28 12:42:00,62.0,40.0,30.26,East,87,0.0,0.0,44,0.00,,,0.00,,2013-10-28 17:42:00,
2013-10-28 12:52:00,62.0,40.0,30.25,SE,138,0.0,0.0,44,0.00,,,0.00,,2013-10-28 17:52:00,
2013-10-28 13:12:00,62.0,39.0,30.24,WSW,244,0.0,2.0,43,0.00,,,0.00,,2013-10-28 18:12:00,
2013-10-28 13:22:00,63.0,39.0,30.24,SE,131,0.0,0.0,41,0.00,,,0.00,,2013-10-28 18:22:00,
2013-10-28 13:42:00,63.0,39.0,30.23,NNE,29,0.0,0.0,41,0.00,,,0.00,,2013-10-28 18:42:00,
2013-10-28 13:52:00,63.0,39.0,30.23,NNE,29,0.0,0.0,41,0.00,,,0.00,,2013-10-28 18:52:00,
2013-10-28 14:11:00,64.0,39.0,30.23,NNW,338,0.0,0.0,40,0.00,,,0.00,,2013-10-28 19:11:00,
2013-10-28 14:22:00,64.0,39.0,30.22,East,86,0.0,0.0,39,0.00,,,0.00,,2013-10-28 19:22:00,
2013-10-28 14:42:00,64.0,38.0,30.22,East,88,0.0,0.0,38,0.00,,,0.00,,2013-10-28 19:42:00,
2013-10-28 14:52:00,65.0,38.0,30.03,East,94,0.0,0.0,37,0.00,,,0.00,,2013-10-28 19:52:00,
2013-10-28 15:11:00,65.0,38.0,30.17,SSE,147,0.0,0.0,37,0.00,,,0.00,,2013-10-28 20:11:00,
2013-10-28 15:22:00,66.0,38.0,30.14,SW,227,0.0,0.0,36,0.00,,,0.00,,2013-10-28 20:22:00,
2013-10-28 15:42:00,66.0,38.0,30.13,SSW,207,0.0,0.0,35,0.00,,,0.00,,2013-10-28 20:42:00,
2013-10-28 15:52:00,66.0,38.0,30.20,SSE,161,0.0,0.0,35,0.00,,,0.00,,2013-10-28 20:52:00,
2013-10-28 16:11:00,66.0,38.0,30.17,East,96,0.0,0.0,35,0.00,,,0.00,,2013-10-28 21:11:00,
2013-10-28 16:21:00,65.0,37.0,30.13,ESE,111,0.0,0.0,36,0.00,,,0.00,,2013-10-28 21:21:00,
2013-10-28 16:43:00,66.0,39.0,30.21,ESE,117,0.0,0.0,37,0.00,,,0.00,,2013-10-28 21:43:00,
2013-10-28 16:54:00,65.0,38.0,30.22,ENE,59,0.0,0.0,37,0.00,,,0.00,,2013-10-28 21:54:00,
2013-10-28 17:13:00,64.0,37.0,30.23,East,93,0.0,0.0,37,0.00,,,0.00,,2013-10-28 22:13:00,
2013-10-28 17:23:00,63.0,39.0,30.24,East,93,0.0,0.0,41,0.00,,,0.00,,2013-10-28 22:23:00,
2013-10-28 17:43:00,61.0,41.0,30.24,East,93,0.0,0.0,47,0.00,,,0.00,,2013-10-28 22:43:00,
2013-10-28 17:53:00,59.0,40.0,30.24,East,93,0.0,0.0,49,0.00,,,0.00,,2013-10-28 22:53:00,
2013-10-28 19:11:00,51.0,40.0,30.26,East,93,0.0,0.0,65,0.00,,,0.00,,2013-10-29 00:11:00,
2013-10-28 19:22:00,50.0,39.0,30.27,East,93,0.0,0.0,67,0.00,,,0.00,,2013-10-29 00:22:00,
2013-10-28 19:42:00,49.0,40.0,30.27,East,93,0.0,0.0,70,0.00,,,0.00,,2013-10-29 00:42:00,
2013-10-28 19:52:00,49.0,40.0,30.28,East,93,0.0,0.0,71,0.00,,,0.00,,2013-10-29 00:52:00,
2013-10-28 20:11:00,48.0,40.0,30.28,East,93,0.0,0.0,73,0.00,,,0.00,,2013-10-29 01:11:00,
2013-10-28 20:21:00,47.0,40.0,30.28,East,93,0.0,0.0,76,0.00,,,0.00,,2013-10-29 01:21:00,
2013-10-28 20:42:00,46.0,39.0,30.28,East,93,0.0,0.0,77,0.00,,,0.00,,2013-10-29 01:42:00,
2013-10-28 20:53:00,46.0,40.0,30.29,East,93,0.0,0.0,80,0.00,,,0.00,,2013-10-29 01:53:00,
2013-10-28 21:11:00,46.0,40.0,30.30,East,93,0.0,0.0,78,0.00,,,0.00,,2013-10-29 02:11:00,
2013-10-28 21:21:00,45.0,39.0,30.30,East,93,0.0,0.0,79,0.00,,,0.00,,2013-10-29 02:21:00,
2013-10-28 21:44:00,45.0,39.0,30.30,East,93,0.0,0.0,79,0.00,,,0.00,,2013-10-29 02:44:00,
2013-10-28 21:54:00,45.0,40.0,30.30,East,93,0.0,0.0,81,0.00,,,0.00,,2013-10-29 02:54:00,
2013-10-28 22:14:00,45.0,40.0,30.31,East,93,0.0,0.0,81,0.00,,,0.00,,2013-10-29 03:14:00,
2013-10-28 22:27:00,45.0,39.0,30.31,East,93,0.0,0.0,79,0.00,,,0.00,,2013-10-29 03:27:00,
2013-10-28 22:40:00,-999.0,-99.9,30.31,East,93,0.0,0.0,80,0.00,,,0.00,,2013-10-29 03:40:00,
2013-10-28 22:47:00,45.0,39.0,30.31,East,93,0.0,0.0,80,0.00,,,0.00,,2013-10-29 03:47:00,
2013-10-28 22:55:00,45.0,39.0,30.31,East,93,0.0,0.0,79,0.00,,,0.00,,2013-10-29 03:55:00,
2013-10-28 23:14:00,46.0,40.0,30.30,East,93,0.0,0.0,78,0.00,,,0.00,,2013-10-29 04:14:00,
2013-10-28 23:24:00,46.0,40.0,30.31,East,93,0.0,0.0,78,0.00,,,0.00,,2013-10-29 04:24:00,
2013-10-28 23:43:00,45.0,39.0,30.31,East,93,0.0,0.0,79,0.00,,,0.00,,2013-10-29 04:43:00,
2013-10-28 23:57:00,44.0,39.0,30.31,East,93,0.0,0.0,81,0.00,,,0.00,,2013-10-29 04:57:00,